sensor_id;sensor_type;location;lat;lon;timestamp;pressure;altitude;pressure_sealevel;temperature;humidity
64023;BME280;50264;52.088;5.296;2022-09-27T00:01:12;99641.0;;;10.42;95.03
64023;BME280;50264;52.088;5.296;2022-09-27T00:02:49;99646.0;;;10.4;95.01
64023;BME280;50264;52.088;5.296;2022-09-27T00:04:26;99647.0;;;10.36;94.87
64023;BME280;50264;52.088;5.296;2022-09-27T00:07:44;99655.0;;;10.36;95.57
64023;BME280;50264;52.088;5.296;2022-09-27T00:09:22;99655.0;;;10.31;95.54
64023;BME280;50264;52.088;5.296;2022-09-27T00:10:59;99662.0;;;10.36;95.81
64023;BME280;50264;52.088;5.296;2022-09-27T00:14:14;99662.0;;;10.41;95.27
64023;BME280;50264;52.088;5.296;2022-09-27T00:15:55;99660.0;;;10.53;95.6
64023;BME280;50264;52.088;5.296;2022-09-27T00:17:32;99664.0;;;10.62;95.16
64023;BME280;50264;52.088;5.296;2022-09-27T00:19:11;99664.0;;;10.73;94.89
64023;BME280;50264;52.088;5.296;2022-09-27T00:22:25;99664.0;;;10.84;95.41
64023;BME280;50264;52.088;5.296;2022-09-27T00:24:02;99670.0;;;10.86;94.7
64023;BME280;50264;52.088;5.296;2022-09-27T00:25:39;99663.0;;;10.98;93.91
64023;BME280;50264;52.088;5.296;2022-09-27T00:28:52;99661.0;;;10.87;93.54
64023;BME280;50264;52.088;5.296;2022-09-27T00:30:28;99662.0;;;10.77;94.33
64023;BME280;50264;52.088;5.296;2022-09-27T00:32:04;99660.0;;;10.68;94.19
64023;BME280;50264;52.088;5.296;2022-09-27T00:33:40;99655.0;;;10.67;95.15
64023;BME280;50264;52.088;5.296;2022-09-27T00:36:52;99651.0;;;10.7;94.84
64023;BME280;50264;52.088;5.296;2022-09-27T00:38:28;99649.0;;;10.64;94.68
64023;BME280;50264;52.088;5.296;2022-09-27T00:40:05;99656.0;;;10.56;94.37
64023;BME280;50264;52.088;5.296;2022-09-27T00:43:22;99652.0;;;10.51;94.36
64023;BME280;50264;52.088;5.296;2022-09-27T00:45:06;99655.0;;;10.47;94.18
64023;BME280;50264;52.088;5.296;2022-09-27T00:46:47;99656.0;;;10.4;95.03
64023;BME280;50264;52.088;5.296;2022-09-27T00:48:30;99659.0;;;10.36;94.99
64023;BME280;50264;52.088;5.296;2022-09-27T00:51:57;99665.0;;;10.32;94.38
64023;BME280;50264;52.088;5.296;2022-09-27T00:53:40;99659.0;;;10.28;94.48
64023;BME280;50264;52.088;5.296;2022-09-27T00:55:22;99664.0;;;10.23;93.96
64023;BME280;50264;52.088;5.296;2022-09-27T00:57:02;99664.0;;;10.23;94.39
64023;BME280;50264;52.088;5.296;2022-09-27T01:00:24;99663.0;;;10.17;94.0
64023;BME280;50264;52.088;5.296;2022-09-27T01:02:01;99659.0;;;10.06;94.67
64023;BME280;50264;52.088;5.296;2022-09-27T01:03:43;99659.0;;;10.06;94.9
64023;BME280;50264;52.088;5.296;2022-09-27T01:05:26;99667.0;;;10.02;94.43
64023;BME280;50264;52.088;5.296;2022-09-27T01:07:03;99670.0;;;10.14;94.13
64023;BME280;50264;52.088;5.296;2022-09-27T01:10:17;99671.0;;;10.06;93.79
64023;BME280;50264;52.088;5.296;2022-09-27T01:12:01;99667.0;;;10.02;93.59
64023;BME280;50264;52.088;5.296;2022-09-27T01:13:52;99663.0;;;9.99;93.46
64023;BME280;50264;52.088;5.296;2022-09-27T01:15:39;99674.0;;;9.89;93.61
64023;BME280;50264;52.088;5.296;2022-09-27T01:19:19;99675.0;;;9.83;93.93
64023;BME280;50264;52.088;5.296;2022-09-27T01:21:24;99677.0;;;9.8;93.97
64023;BME280;50264;52.088;5.296;2022-09-27T01:23:36;99687.0;;;9.74;94.33
64023;BME280;50264;52.088;5.296;2022-09-27T01:26:53;99698.0;;;9.66;94.32
64023;BME280;50264;52.088;5.296;2022-09-27T01:28:49;99698.0;;;9.73;94.52
64023;BME280;50264;52.088;5.296;2022-09-27T01:30:39;99692.0;;;9.71;93.99
64023;BME280;50264;52.088;5.296;2022-09-27T01:32:22;99687.0;;;9.71;94.32
64023;BME280;50264;52.088;5.296;2022-09-27T01:36:04;99687.0;;;9.66;94.77
64023;BME280;50264;52.088;5.296;2022-09-27T01:37:51;99690.0;;;9.64;94.7
64023;BME280;50264;52.088;5.296;2022-09-27T01:39:44;99694.0;;;9.67;94.44
64023;BME280;50264;52.088;5.296;2022-09-27T01:41:31;99691.0;;;9.75;94.54
64023;BME280;50264;52.088;5.296;2022-09-27T01:43:15;99684.0;;;9.75;94.84
64023;BME280;50264;52.088;5.296;2022-09-27T01:44:59;99695.0;;;9.73;94.64
64023;BME280;50264;52.088;5.296;2022-09-27T01:48:24;99697.0;;;9.66;95.31
64023;BME280;50264;52.088;5.296;2022-09-27T01:50:10;99699.0;;;9.68;95.65
64023;BME280;50264;52.088;5.296;2022-09-27T01:51:53;99705.0;;;9.81;95.63
64023;BME280;50264;52.088;5.296;2022-09-27T01:53:35;99695.0;;;9.86;95.08
64023;BME280;50264;52.088;5.296;2022-09-27T01:55:15;99690.0;;;9.88;95.01
64023;BME280;50264;52.088;5.296;2022-09-27T01:58:40;99678.0;;;9.88;94.98
64023;BME280;50264;52.088;5.296;2022-09-27T02:00:20;99675.0;;;9.82;95.42
64023;BME280;50264;52.088;5.296;2022-09-27T02:02:02;99678.0;;;9.81;95.54
64023;BME280;50264;52.088;5.296;2022-09-27T02:03:43;99683.0;;;9.77;95.31
64023;BME280;50264;52.088;5.296;2022-09-27T02:07:07;99680.0;;;9.73;95.42
64023;BME280;50264;52.088;5.296;2022-09-27T02:08:50;99683.0;;;9.72;94.88
64023;BME280;50264;52.088;5.296;2022-09-27T02:10:31;99682.0;;;9.69;94.85
64023;BME280;50264;52.088;5.296;2022-09-27T02:12:12;99681.0;;;9.66;94.74
64023;BME280;50264;52.088;5.296;2022-09-27T02:15:41;99684.0;;;9.64;94.52
64023;BME280;50264;52.088;5.296;2022-09-27T02:17:34;99685.0;;;9.65;94.82
64023;BME280;50264;52.088;5.296;2022-09-27T02:19:20;99684.0;;;9.57;94.92
64023;BME280;50264;52.088;5.296;2022-09-27T02:21:04;99681.0;;;9.56;94.71
64023;BME280;50264;52.088;5.296;2022-09-27T02:22:48;99681.0;;;9.57;94.14
64023;BME280;50264;52.088;5.296;2022-09-27T02:24:32;99680.0;;;9.66;93.63
64023;BME280;50264;52.088;5.296;2022-09-27T02:28:03;99683.0;;;9.68;92.94
64023;BME280;50264;52.088;5.296;2022-09-27T02:29:56;99685.0;;;9.55;93.44
64023;BME280;50264;52.088;5.296;2022-09-27T02:31:34;99680.0;;;9.46;93.93
64023;BME280;50264;52.088;5.296;2022-09-27T02:33:11;99680.0;;;9.41;93.58
64023;BME280;50264;52.088;5.296;2022-09-27T02:36:26;99678.0;;;9.38;94.52
64023;BME280;50264;52.088;5.296;2022-09-27T02:38:04;99675.0;;;9.38;94.14
64023;BME280;50264;52.088;5.296;2022-09-27T02:39:42;99677.0;;;9.33;93.59
64023;BME280;50264;52.088;5.296;2022-09-27T02:41:20;99677.0;;;9.23;93.88
64023;BME280;50264;52.088;5.296;2022-09-27T02:44:34;99675.0;;;9.18;94.43
64023;BME280;50264;52.088;5.296;2022-09-27T02:46:24;99680.0;;;9.14;94.26
64023;BME280;50264;52.088;5.296;2022-09-27T02:48:43;99674.0;;;9.11;93.74
64023;BME280;50264;52.088;5.296;2022-09-27T02:50:39;99675.0;;;9.16;94.05
64023;BME280;50264;52.088;5.296;2022-09-27T02:53:30;99675.0;;;9.13;93.19
64023;BME280;50264;52.088;5.296;2022-09-27T02:55:17;99668.0;;;9.08;93.22
64023;BME280;50264;52.088;5.296;2022-09-27T02:57:11;99675.0;;;9.02;93.09
64023;BME280;50264;52.088;5.296;2022-09-27T02:59:02;99677.0;;;9.02;93.34
64023;BME280;50264;52.088;5.296;2022-09-27T03:00:47;99673.0;;;9.02;93.95
64023;BME280;50264;52.088;5.296;2022-09-27T03:02:33;99678.0;;;8.99;93.62
64023;BME280;50264;52.088;5.296;2022-09-27T03:06:01;99681.0;;;8.97;93.85
64023;BME280;50264;52.088;5.296;2022-09-27T03:07:39;99686.0;;;8.93;94.12
64023;BME280;50264;52.088;5.296;2022-09-27T03:09:17;99684.0;;;8.91;94.38
64023;BME280;50264;52.088;5.296;2022-09-27T03:10:54;99682.0;;;9.01;94.79
64023;BME280;50264;52.088;5.296;2022-09-27T03:14:08;99686.0;;;9.02;94.59
64023;BME280;50264;52.088;5.296;2022-09-27T03:15:44;99680.0;;;9.06;94.65
64023;BME280;50264;52.088;5.296;2022-09-27T03:17:20;99680.0;;;9.02;94.5
64023;BME280;50264;52.088;5.296;2022-09-27T03:18:56;99677.0;;;9.02;94.21
64023;BME280;50264;52.088;5.296;2022-09-27T03:22:10;99680.0;;;8.99;94.34
64023;BME280;50264;52.088;5.296;2022-09-27T03:23:46;99680.0;;;9.02;94.87
64023;BME280;50264;52.088;5.296;2022-09-27T03:25:22;99678.0;;;9.13;94.59
64023;BME280;50264;52.088;5.296;2022-09-27T03:28:34;99680.0;;;9.08;94.9
64023;BME280;50264;52.088;5.296;2022-09-27T03:30:12;99676.0;;;9.18;95.03
64023;BME280;50264;52.088;5.296;2022-09-27T03:31:49;99674.0;;;9.17;95.06
64023;BME280;50264;52.088;5.296;2022-09-27T03:35:02;99675.0;;;9.18;94.78
64023;BME280;50264;52.088;5.296;2022-09-27T03:36:39;99680.0;;;9.19;94.8
64023;BME280;50264;52.088;5.296;2022-09-27T03:38:15;99682.0;;;9.22;95.37
64023;BME280;50264;52.088;5.296;2022-09-27T03:39:52;99682.0;;;9.23;95.32
64023;BME280;50264;52.088;5.296;2022-09-27T03:43:05;99675.0;;;9.35;95.0
64023;BME280;50264;52.088;5.296;2022-09-27T03:44:42;99675.0;;;9.41;95.36
64023;BME280;50264;52.088;5.296;2022-09-27T03:46:18;99675.0;;;9.48;95.23
64023;BME280;50264;52.088;5.296;2022-09-27T03:49:31;99673.0;;;9.5;95.1
64023;BME280;50264;52.088;5.296;2022-09-27T03:51:08;99675.0;;;9.47;93.97
64023;BME280;50264;52.088;5.296;2022-09-27T03:52:45;99673.0;;;9.43;94.37
64023;BME280;50264;52.088;5.296;2022-09-27T03:55:57;99676.0;;;9.41;94.29
64023;BME280;50264;52.088;5.296;2022-09-27T03:57:34;99677.0;;;9.34;94.21
64023;BME280;50264;52.088;5.296;2022-09-27T03:59:10;99680.0;;;9.32;94.43
64023;BME280;50264;52.088;5.296;2022-09-27T04:00:46;99681.0;;;9.33;94.29
64023;BME280;50264;52.088;5.296;2022-09-27T04:03:59;99685.0;;;9.26;93.99
64023;BME280;50264;52.088;5.296;2022-09-27T04:05:35;99683.0;;;9.27;93.58
64023;BME280;50264;52.088;5.296;2022-09-27T04:07:11;99681.0;;;9.22;93.78
64023;BME280;50264;52.088;5.296;2022-09-27T04:10:23;99681.0;;;9.19;94.16
64023;BME280;50264;52.088;5.296;2022-09-27T04:12:00;99688.0;;;9.13;94.02
64023;BME280;50264;52.088;5.296;2022-09-27T04:13:36;99690.0;;;9.06;94.06
64023;BME280;50264;52.088;5.296;2022-09-27T04:16:48;99695.0;;;9.1;94.17
64023;BME280;50264;52.088;5.296;2022-09-27T04:18:24;99697.0;;;9.13;94.51
64023;BME280;50264;52.088;5.296;2022-09-27T04:20:02;99700.0;;;9.26;94.39
64023;BME280;50264;52.088;5.296;2022-09-27T04:21:40;99703.0;;;9.3;94.65
64023;BME280;50264;52.088;5.296;2022-09-27T04:24:56;99690.0;;;9.38;94.82
64023;BME280;50264;52.088;5.296;2022-09-27T04:26:32;99698.0;;;9.34;94.52
64023;BME280;50264;52.088;5.296;2022-09-27T04:28:08;99687.0;;;9.35;94.04
64023;BME280;50264;52.088;5.296;2022-09-27T04:31:20;99692.0;;;9.27;94.6
64023;BME280;50264;52.088;5.296;2022-09-27T04:32:56;99695.0;;;9.26;94.65
64023;BME280;50264;52.088;5.296;2022-09-27T04:37:14;99698.0;;;9.22;94.47
64023;BME280;50264;52.088;5.296;2022-09-27T04:38:50;99698.0;;;9.16;93.93
64023;BME280;50264;52.088;5.296;2022-09-27T04:40:27;99702.0;;;9.15;93.83
64023;BME280;50264;52.088;5.296;2022-09-27T04:43:41;99702.0;;;9.23;93.56
64023;BME280;50264;52.088;5.296;2022-09-27T04:45:18;99705.0;;;9.25;93.16
64023;BME280;50264;52.088;5.296;2022-09-27T04:46:54;99705.0;;;9.16;93.96
64023;BME280;50264;52.088;5.296;2022-09-27T04:50:07;99710.0;;;9.14;94.08
64023;BME280;50264;52.088;5.296;2022-09-27T04:51:44;99711.0;;;9.1;93.91
64023;BME280;50264;52.088;5.296;2022-09-27T04:53:20;99712.0;;;9.14;94.26
64023;BME280;50264;52.088;5.296;2022-09-27T04:56:32;99712.0;;;9.23;93.92
64023;BME280;50264;52.088;5.296;2022-09-27T04:58:08;99706.0;;;9.36;94.14
64023;BME280;50264;52.088;5.296;2022-09-27T04:59:44;99709.0;;;9.39;93.7
64023;BME280;50264;52.088;5.296;2022-09-27T05:02:57;99702.0;;;9.39;93.57
64023;BME280;50264;52.088;5.296;2022-09-27T05:04:33;99699.0;;;9.46;93.36
64023;BME280;50264;52.088;5.296;2022-09-27T05:06:10;99699.0;;;9.51;93.36
64023;BME280;50264;52.088;5.296;2022-09-27T05:07:46;99695.0;;;9.55;92.79
64023;BME280;50264;52.088;5.296;2022-09-27T05:10:58;99691.0;;;9.49;92.83
64023;BME280;50264;52.088;5.296;2022-09-27T05:12:35;99691.0;;;9.48;93.32
64023;BME280;50264;52.088;5.296;2022-09-27T05:14:13;99692.0;;;9.47;93.52
64023;BME280;50264;52.088;5.296;2022-09-27T05:17:25;99691.0;;;9.42;93.57
64023;BME280;50264;52.088;5.296;2022-09-27T05:19:02;99694.0;;;9.48;93.86
64023;BME280;50264;52.088;5.296;2022-09-27T05:20:39;99699.0;;;9.51;93.48
64023;BME280;50264;52.088;5.296;2022-09-27T05:23:53;99700.0;;;9.44;93.7
64023;BME280;50264;52.088;5.296;2022-09-27T05:25:31;99703.0;;;9.48;94.58
64023;BME280;50264;52.088;5.296;2022-09-27T05:27:12;99705.0;;;9.55;94.24
64023;BME280;50264;52.088;5.296;2022-09-27T05:28:48;99706.0;;;9.52;94.11
64023;BME280;50264;52.088;5.296;2022-09-27T05:32:01;99700.0;;;9.55;94.14
64023;BME280;50264;52.088;5.296;2022-09-27T05:33:39;99705.0;;;9.6;94.13
64023;BME280;50264;52.088;5.296;2022-09-27T05:35:17;99703.0;;;9.48;93.81
64023;BME280;50264;52.088;5.296;2022-09-27T05:38:30;99706.0;;;9.39;94.12
64023;BME280;50264;52.088;5.296;2022-09-27T05:40:06;99701.0;;;9.4;94.45
64023;BME280;50264;52.088;5.296;2022-09-27T05:41:44;99706.0;;;9.53;94.04
64023;BME280;50264;52.088;5.296;2022-09-27T05:43:21;99706.0;;;9.56;94.27
64023;BME280;50264;52.088;5.296;2022-09-27T05:46:34;99707.0;;;9.53;93.45
64023;BME280;50264;52.088;5.296;2022-09-27T05:48:12;99710.0;;;9.51;94.31
64023;BME280;50264;52.088;5.296;2022-09-27T05:49:48;99714.0;;;9.5;94.32
64023;BME280;50264;52.088;5.296;2022-09-27T05:53:02;99712.0;;;9.51;94.54
64023;BME280;50264;52.088;5.296;2022-09-27T05:54:39;99710.0;;;9.58;94.15
64023;BME280;50264;52.088;5.296;2022-09-27T05:56:16;99713.0;;;9.57;94.36
64023;BME280;50264;52.088;5.296;2022-09-27T05:57:54;99716.0;;;9.67;94.26
64023;BME280;50264;52.088;5.296;2022-09-27T06:01:07;99716.0;;;9.74;94.13
64023;BME280;50264;52.088;5.296;2022-09-27T06:02:43;99714.0;;;9.68;93.54
64023;BME280;50264;52.088;5.296;2022-09-27T06:04:20;99716.0;;;9.73;94.3
64023;BME280;50264;52.088;5.296;2022-09-27T06:07:39;99718.0;;;9.81;93.43
64023;BME280;50264;52.088;5.296;2022-09-27T06:09:16;99719.0;;;9.91;93.52
64023;BME280;50264;52.088;5.296;2022-09-27T06:11:00;99714.0;;;9.93;94.05
64023;BME280;50264;52.088;5.296;2022-09-27T06:12:36;99717.0;;;9.99;94.29
64023;BME280;50264;52.088;5.296;2022-09-27T06:15:51;99724.0;;;10.01;94.12
64023;BME280;50264;52.088;5.296;2022-09-27T06:17:27;99725.0;;;10.06;94.47
64023;BME280;50264;52.088;5.296;2022-09-27T06:19:03;99722.0;;;10.14;94.65
64023;BME280;50264;52.088;5.296;2022-09-27T06:22:19;99725.0;;;10.06;94.48
64023;BME280;50264;52.088;5.296;2022-09-27T06:23:58;99728.0;;;10.27;94.43
64023;BME280;50264;52.088;5.296;2022-09-27T06:25:35;99733.0;;;10.23;93.8
64023;BME280;50264;52.088;5.296;2022-09-27T06:27:12;99743.0;;;10.15;93.88
64023;BME280;50264;52.088;5.296;2022-09-27T06:30:27;99738.0;;;10.23;94.99
64023;BME280;50264;52.088;5.296;2022-09-27T06:32:03;99740.0;;;10.16;94.41
64023;BME280;50264;52.088;5.296;2022-09-27T06:33:39;99728.0;;;10.13;94.98
64023;BME280;50264;52.088;5.296;2022-09-27T06:36:52;99733.0;;;10.06;95.12
64023;BME280;50264;52.088;5.296;2022-09-27T06:38:28;99732.0;;;10.06;95.1
64023;BME280;50264;52.088;5.296;2022-09-27T06:40:06;99738.0;;;10.09;95.64
64023;BME280;50264;52.088;5.296;2022-09-27T06:43:19;99732.0;;;10.23;95.27
64023;BME280;50264;52.088;5.296;2022-09-27T06:44:56;99730.0;;;10.23;94.38
64023;BME280;50264;52.088;5.296;2022-09-27T06:46:32;99734.0;;;10.27;94.85
64023;BME280;50264;52.088;5.296;2022-09-27T06:48:11;99740.0;;;10.31;95.27
64023;BME280;50264;52.088;5.296;2022-09-27T06:51:25;99739.0;;;10.33;95.58
64023;BME280;50264;52.088;5.296;2022-09-27T06:53:02;99738.0;;;10.38;95.19
64023;BME280;50264;52.088;5.296;2022-09-27T06:54:40;99734.0;;;10.37;95.53
64023;BME280;50264;52.088;5.296;2022-09-27T07:00:48;99740.0;;;10.37;96.09
64023;BME280;50264;52.088;5.296;2022-09-27T07:04:02;99750.0;;;10.44;95.36
64023;BME280;50264;52.088;5.296;2022-09-27T07:05:40;99756.0;;;10.45;95.7
64023;BME280;50264;52.088;5.296;2022-09-27T07:07:17;99750.0;;;10.51;95.57
64023;BME280;50264;52.088;5.296;2022-09-27T07:10:33;99752.0;;;10.53;95.95
64023;BME280;50264;52.088;5.296;2022-09-27T07:12:12;99753.0;;;10.56;95.52
64023;BME280;50264;52.088;5.296;2022-09-27T07:13:48;99753.0;;;10.64;95.28
64023;BME280;50264;52.088;5.296;2022-09-27T07:15:27;99759.0;;;10.6;95.4
64023;BME280;50264;52.088;5.296;2022-09-27T07:18:39;99757.0;;;10.73;95.58
64023;BME280;50264;52.088;5.296;2022-09-27T07:20:16;99755.0;;;10.73;95.23
64023;BME280;50264;52.088;5.296;2022-09-27T07:21:52;99755.0;;;10.82;94.97
64023;BME280;50264;52.088;5.296;2022-09-27T07:25:05;99757.0;;;10.86;94.92
64023;BME280;50264;52.088;5.296;2022-09-27T07:26:41;99762.0;;;10.7;95.23
64023;BME280;50264;52.088;5.296;2022-09-27T07:28:18;99762.0;;;10.83;95.65
64023;BME280;50264;52.088;5.296;2022-09-27T07:29:55;99771.0;;;10.85;95.05
64023;BME280;50264;52.088;5.296;2022-09-27T07:33:09;99775.0;;;10.84;95.08
64023;BME280;50264;52.088;5.296;2022-09-27T07:34:45;99780.0;;;10.85;95.4
64023;BME280;50264;52.088;5.296;2022-09-27T07:36:21;99778.0;;;10.83;95.26
64023;BME280;50264;52.088;5.296;2022-09-27T07:39:34;99775.0;;;10.92;96.0
64023;BME280;50264;52.088;5.296;2022-09-27T07:41:13;99773.0;;;11.03;96.05
64023;BME280;50264;52.088;5.296;2022-09-27T07:42:53;99777.0;;;11.08;95.81
64023;BME280;50264;52.088;5.296;2022-09-27T07:46:07;99772.0;;;11.1;95.62
64023;BME280;50264;52.088;5.296;2022-09-27T07:47:43;99773.0;;;11.15;95.43
64023;BME280;50264;52.088;5.296;2022-09-27T07:49:19;99774.0;;;11.22;95.32
64023;BME280;50264;52.088;5.296;2022-09-27T07:50:55;99778.0;;;11.22;95.37
64023;BME280;50264;52.088;5.296;2022-09-27T07:55:52;99784.0;;;11.17;94.33
64023;BME280;50264;52.088;5.296;2022-09-27T07:57:29;99777.0;;;11.26;95.4
64023;BME280;50264;52.088;5.296;2022-09-27T08:00:43;99778.0;;;11.31;95.62
64023;BME280;50264;52.088;5.296;2022-09-27T08:02:19;99778.0;;;11.24;95.7
64023;BME280;50264;52.088;5.296;2022-09-27T08:03:57;99780.0;;;11.29;95.26
64023;BME280;50264;52.088;5.296;2022-09-27T08:05:34;99780.0;;;11.33;95.52
64023;BME280;50264;52.088;5.296;2022-09-27T08:08:46;99785.0;;;11.27;93.95
64023;BME280;50264;52.088;5.296;2022-09-27T08:10:24;99782.0;;;11.33;93.89
64023;BME280;50264;52.088;5.296;2022-09-27T08:12:06;99785.0;;;11.18;93.62
64023;BME280;50264;52.088;5.296;2022-09-27T08:15:19;99786.0;;;11.25;94.53
64023;BME280;50264;52.088;5.296;2022-09-27T08:16:55;99786.0;;;11.19;93.64
64023;BME280;50264;52.088;5.296;2022-09-27T08:18:31;99785.0;;;11.19;94.11
64023;BME280;50264;52.088;5.296;2022-09-27T08:20:08;99787.0;;;11.15;94.77
64023;BME280;50264;52.088;5.296;2022-09-27T08:23:20;99786.0;;;11.32;93.14
64023;BME280;50264;52.088;5.296;2022-09-27T08:24:57;99787.0;;;11.34;93.97
64023;BME280;50264;52.088;5.296;2022-09-27T08:26:33;99788.0;;;11.14;93.39
64023;BME280;50264;52.088;5.296;2022-09-27T08:29:46;99791.0;;;11.14;93.09
64023;BME280;50264;52.088;5.296;2022-09-27T08:31:24;99795.0;;;11.23;94.03
64023;BME280;50264;52.088;5.296;2022-09-27T08:33:01;99797.0;;;11.28;94.02
64023;BME280;50264;52.088;5.296;2022-09-27T08:36:14;99799.0;;;11.32;94.16
64023;BME280;50264;52.088;5.296;2022-09-27T08:37:54;99809.0;;;11.33;94.43
64023;BME280;50264;52.088;5.296;2022-09-27T08:39:30;99805.0;;;11.31;92.49
64023;BME280;50264;52.088;5.296;2022-09-27T08:41:11;99809.0;;;11.22;93.69
64023;BME280;50264;52.088;5.296;2022-09-27T08:44:45;99814.0;;;11.26;93.96
64023;BME280;50264;52.088;5.296;2022-09-27T08:46:39;99820.0;;;11.21;92.81
64023;BME280;50264;52.088;5.296;2022-09-27T08:48:21;99814.0;;;11.13;93.7
64023;BME280;50264;52.088;5.296;2022-09-27T08:50:10;99816.0;;;11.15;93.15
64023;BME280;50264;52.088;5.296;2022-09-27T08:51:57;99817.0;;;11.07;92.54
64023;BME280;50264;52.088;5.296;2022-09-27T08:53:38;99817.0;;;10.97;91.86
64023;BME280;50264;52.088;5.296;2022-09-27T08:57:04;99814.0;;;10.89;93.34
64023;BME280;50264;52.088;5.296;2022-09-27T08:58:48;99806.0;;;10.81;91.6
64023;BME280;50264;52.088;5.296;2022-09-27T09:00:27;99807.0;;;10.93;93.71
64023;BME280;50264;52.088;5.296;2022-09-27T09:02:13;99805.0;;;10.94;93.21
64023;BME280;50264;52.088;5.296;2022-09-27T09:05:32;99818.0;;;10.98;93.81
64023;BME280;50264;52.088;5.296;2022-09-27T09:07:19;99817.0;;;10.97;94.0
64023;BME280;50264;52.088;5.296;2022-09-27T09:09:12;99813.0;;;10.95;94.18
64023;BME280;50264;52.088;5.296;2022-09-27T09:14:01;99818.0;;;10.96;94.23
64023;BME280;50264;52.088;5.296;2022-09-27T09:17:40;99817.0;;;10.95;93.42
64023;BME280;50264;52.088;5.296;2022-09-27T09:19:34;99822.0;;;10.83;94.34
64023;BME280;50264;52.088;5.296;2022-09-27T09:21:23;99823.0;;;10.94;94.28
64023;BME280;50264;52.088;5.296;2022-09-27T09:23:22;99830.0;;;10.93;95.24
64023;BME280;50264;52.088;5.296;2022-09-27T09:25:18;99830.0;;;10.8;93.55
64023;BME280;50264;52.088;5.296;2022-09-27T09:28:54;99832.0;;;10.83;94.32
64023;BME280;50264;52.088;5.296;2022-09-27T09:30:43;99831.0;;;10.75;93.87
64023;BME280;50264;52.088;5.296;2022-09-27T09:32:34;99833.0;;;10.78;94.72
64023;BME280;50264;52.088;5.296;2022-09-27T09:34:18;99828.0;;;10.66;92.63
64023;BME280;50264;52.088;5.296;2022-09-27T09:36:02;99827.0;;;10.8;93.89
64023;BME280;50264;52.088;5.296;2022-09-27T09:37:47;99826.0;;;10.68;93.67
64023;BME280;50264;52.088;5.296;2022-09-27T09:41:11;99830.0;;;10.77;93.54
64023;BME280;50264;52.088;5.296;2022-09-27T09:42:56;99826.0;;;10.74;93.1
64023;BME280;50264;52.088;5.296;2022-09-27T09:44:41;99822.0;;;10.76;93.68
64023;BME280;50264;52.088;5.296;2022-09-27T09:46:24;99822.0;;;10.79;93.49
64023;BME280;50264;52.088;5.296;2022-09-27T09:48:09;99826.0;;;10.81;94.19
64023;BME280;50264;52.088;5.296;2022-09-27T09:51:37;99826.0;;;10.83;92.91
64023;BME280;50264;52.088;5.296;2022-09-27T09:53:21;99834.0;;;10.89;93.97
64023;BME280;50264;52.088;5.296;2022-09-27T09:55:12;99835.0;;;10.96;93.69
64023;BME280;50264;52.088;5.296;2022-09-27T09:56:59;99832.0;;;11.01;93.48
64023;BME280;50264;52.088;5.296;2022-09-27T09:58:41;99840.0;;;10.96;94.12
64023;BME280;50264;52.088;5.296;2022-09-27T10:01:59;99838.0;;;11.03;94.69
64023;BME280;50264;52.088;5.296;2022-09-27T10:03:50;99843.0;;;11.13;94.18
64023;BME280;50264;52.088;5.296;2022-09-27T10:05:27;99843.0;;;11.18;93.9
64023;BME280;50264;52.088;5.296;2022-09-27T10:07:03;99846.0;;;11.19;93.95
64023;BME280;50264;52.088;5.296;2022-09-27T10:10:18;99848.0;;;11.19;92.29
64023;BME280;50264;52.088;5.296;2022-09-27T10:11:55;99843.0;;;11.17;93.72
64023;BME280;50264;52.088;5.296;2022-09-27T10:13:33;99842.0;;;11.09;91.58
64023;BME280;50264;52.088;5.296;2022-09-27T10:15:13;99841.0;;;11.02;91.72
64023;BME280;50264;52.088;5.296;2022-09-27T10:18:35;99839.0;;;11.04;93.01
64023;BME280;50264;52.088;5.296;2022-09-27T10:20:23;99838.0;;;11.04;92.7
64023;BME280;50264;52.088;5.296;2022-09-27T10:22:12;99833.0;;;11.15;93.25
64023;BME280;50264;52.088;5.296;2022-09-27T10:24:09;99830.0;;;11.05;93.38
64023;BME280;50264;52.088;5.296;2022-09-27T10:25:49;99826.0;;;10.95;92.49
64023;BME280;50264;52.088;5.296;2022-09-27T10:29:21;99828.0;;;10.99;92.49
64023;BME280;50264;52.088;5.296;2022-09-27T10:31:01;99830.0;;;11.03;93.09
64023;BME280;50264;52.088;5.296;2022-09-27T10:32:38;99833.0;;;11.03;92.28
64023;BME280;50264;52.088;5.296;2022-09-27T10:34:19;99837.0;;;11.13;92.13
64023;BME280;50264;52.088;5.296;2022-09-27T10:37:37;99837.0;;;11.17;93.25
64023;BME280;50264;52.088;5.296;2022-09-27T10:39:21;99836.0;;;11.21;93.56
64023;BME280;50264;52.088;5.296;2022-09-27T10:41:15;99833.0;;;11.32;94.32
64023;BME280;50264;52.088;5.296;2022-09-27T10:42:52;99839.0;;;11.49;94.87
64023;BME280;50264;52.088;5.296;2022-09-27T10:44:30;99841.0;;;11.44;93.94
64023;BME280;50264;52.088;5.296;2022-09-27T10:47:58;99842.0;;;11.5;93.05
64023;BME280;50264;52.088;5.296;2022-09-27T10:49:38;99840.0;;;11.53;91.79
64023;BME280;50264;52.088;5.296;2022-09-27T10:51:27;99838.0;;;11.5;92.07
64023;BME280;50264;52.088;5.296;2022-09-27T10:53:11;99841.0;;;11.4;91.45
64023;BME280;50264;52.088;5.296;2022-09-27T10:56:32;99840.0;;;11.49;92.7
64023;BME280;50264;52.088;5.296;2022-09-27T10:58:15;99844.0;;;11.46;92.22
64023;BME280;50264;52.088;5.296;2022-09-27T10:59:55;99845.0;;;11.35;91.79
64023;BME280;50264;52.088;5.296;2022-09-27T11:01:38;99844.0;;;11.48;93.22
64023;BME280;50264;52.088;5.296;2022-09-27T11:03:18;99847.0;;;11.55;94.14
64023;BME280;50264;52.088;5.296;2022-09-27T11:06:44;99841.0;;;11.61;92.24
64023;BME280;50264;52.088;5.296;2022-09-27T11:08:28;99846.0;;;11.5;92.58
64023;BME280;50264;52.088;5.296;2022-09-27T11:10:21;99841.0;;;11.61;93.41
64023;BME280;50264;52.088;5.296;2022-09-27T11:12:07;99846.0;;;11.22;89.26
64023;BME280;50264;52.088;5.296;2022-09-27T11:13:57;99840.0;;;11.37;91.57
64023;BME280;50264;52.088;5.296;2022-09-27T11:17:29;99841.0;;;11.42;93.05
64023;BME280;50264;52.088;5.296;2022-09-27T11:19:20;99840.0;;;11.42;93.05
64023;BME280;50264;52.088;5.296;2022-09-27T11:21:12;99842.0;;;11.35;92.2
64023;BME280;50264;52.088;5.296;2022-09-27T11:24:08;99834.0;;;11.5;93.39
64023;BME280;50264;52.088;5.296;2022-09-27T11:26:02;99836.0;;;11.39;90.62
64023;BME280;50264;52.088;5.296;2022-09-27T11:27:57;99838.0;;;11.42;90.39
64023;BME280;50264;52.088;5.296;2022-09-27T11:29:46;99833.0;;;11.32;91.0
64023;BME280;50264;52.088;5.296;2022-09-27T11:31:36;99830.0;;;11.18;90.73
64023;BME280;50264;52.088;5.296;2022-09-27T11:33:39;99831.0;;;11.13;91.01